sensor_id;sensor_type;location;lat;lon;timestamp;pressure;altitude;pressure_sealevel;temperature;humidity
13407;BME280;6774;48.208;10.766;2022-09-17T00:01:20;95082.84;;;11.34;86.67
13407;BME280;6774;48.208;10.766;2022-09-17T00:03:49;95086.09;;;11.36;86.47
13407;BME280;6774;48.208;10.766;2022-09-17T00:06:17;95084.25;;;11.56;85.93
13407;BME280;6774;48.208;10.766;2022-09-17T00:08:46;95080.59;;;11.57;86.37
13407;BME280;6774;48.208;10.766;2022-09-17T00:11:17;95097.47;;;11.56;86.56
13407;BME280;6774;48.208;10.766;2022-09-17T00:13:48;95092.38;;;11.61;86.72
13407;BME280;6774;48.208;10.766;2022-09-17T00:16:23;95088.31;;;11.46;87.55
13407;BME280;6774;48.208;10.766;2022-09-17T00:18:51;95095.41;;;11.38;88.51
13407;BME280;6774;48.208;10.766;2022-09-17T00:21:19;95100.63;;;10.79;88.80
13407;BME280;6774;48.208;10.766;2022-09-17T00:23:47;95104.69;;;10.88;85.96
13407;BME280;6774;48.208;10.766;2022-09-17T00:26:17;95099.56;;;10.73;85.80
13407;BME280;6774;48.208;10.766;2022-09-17T00:28:48;95095.28;;;10.66;85.82
13407;BME280;6774;48.208;10.766;2022-09-17T00:31:16;95097.72;;;10.67;85.82
13407;BME280;6774;48.208;10.766;2022-09-17T00:33:45;95095.63;;;10.49;86.95
13407;BME280;6774;48.208;10.766;2022-09-17T00:36:12;95099.72;;;10.59;87.33
13407;BME280;6774;48.208;10.766;2022-09-17T00:38:40;95099.78;;;10.72;87.25
13407;BME280;6774;48.208;10.766;2022-09-17T00:41:09;95101.97;;;10.68;87.98
13407;BME280;6774;48.208;10.766;2022-09-17T00:43:41;95104.25;;;10.85;87.77
13407;BME280;6774;48.208;10.766;2022-09-17T00:46:19;95107.06;;;10.70;88.92
13407;BME280;6774;48.208;10.766;2022-09-17T00:48:50;95095.34;;;10.86;88.67
13407;BME280;6774;48.208;10.766;2022-09-17T00:51:22;95104.31;;;11.04;88.59
13407;BME280;6774;48.208;10.766;2022-09-17T00:53:51;95091.34;;;11.09;88.84
13407;BME280;6774;48.208;10.766;2022-09-17T00:56:22;95088.50;;;11.18;88.80
13407;BME280;6774;48.208;10.766;2022-09-17T00:58:53;95077.09;;;11.24;88.83
13407;BME280;6774;48.208;10.766;2022-09-17T01:01:22;95081.59;;;11.30;88.57
13407;BME280;6774;48.208;10.766;2022-09-17T01:03:50;95100.28;;;11.08;89.03
13407;BME280;6774;48.208;10.766;2022-09-17T01:06:24;95092.53;;;11.14;89.19
13407;BME280;6774;48.208;10.766;2022-09-17T01:09:11;95093.38;;;11.07;89.18
13407;BME280;6774;48.208;10.766;2022-09-17T01:11:53;95094.56;;;10.98;89.49
13407;BME280;6774;48.208;10.766;2022-09-17T01:14:37;95097.75;;;10.87;90.52
13407;BME280;6774;48.208;10.766;2022-09-17T01:17:14;95089.06;;;10.93;90.50
13407;BME280;6774;48.208;10.766;2022-09-17T01:23:04;95092.53;;;11.00;91.47
13407;BME280;6774;48.208;10.766;2022-09-17T01:25:41;95095.38;;;11.05;91.22
13407;BME280;6774;48.208;10.766;2022-09-17T01:28:33;95098.22;;;10.97;90.91
13407;BME280;6774;48.208;10.766;2022-09-17T01:31:21;95101.47;;;10.99;90.77
13407;BME280;6774;48.208;10.766;2022-09-17T01:33:58;95104.88;;;10.87;91.25
13407;BME280;6774;48.208;10.766;2022-09-17T01:36:41;95110.53;;;10.77;91.27
13407;BME280;6774;48.208;10.766;2022-09-17T01:39:16;95105.13;;;10.98;90.69
13407;BME280;6774;48.208;10.766;2022-09-17T01:41:51;95105.72;;;11.00;90.64
13407;BME280;6774;48.208;10.766;2022-09-17T01:44:25;95115.63;;;10.85;91.60
13407;BME280;6774;48.208;10.766;2022-09-17T01:47:01;95117.97;;;10.60;92.20
13407;BME280;6774;48.208;10.766;2022-09-17T01:49:34;95112.09;;;10.58;92.72
13407;BME280;6774;48.208;10.766;2022-09-17T01:52:03;95114.25;;;10.41;92.08
13407;BME280;6774;48.208;10.766;2022-09-17T01:54:35;95113.44;;;10.41;92.00
13407;BME280;6774;48.208;10.766;2022-09-17T01:57:12;95112.22;;;10.37;92.57
13407;BME280;6774;48.208;10.766;2022-09-17T01:59:45;95114.66;;;10.38;92.16
13407;BME280;6774;48.208;10.766;2022-09-17T02:02:20;95111.06;;;10.52;91.64
13407;BME280;6774;48.208;10.766;2022-09-17T02:04:55;95114.31;;;10.54;91.27
13407;BME280;6774;48.208;10.766;2022-09-17T02:07:24;95119.19;;;10.58;91.53
13407;BME280;6774;48.208;10.766;2022-09-17T02:09:57;95129.69;;;10.44;91.01
13407;BME280;6774;48.208;10.766;2022-09-17T02:12:30;95134.16;;;10.44;91.35
13407;BME280;6774;48.208;10.766;2022-09-17T02:15:02;95136.66;;;10.59;91.25
13407;BME280;6774;48.208;10.766;2022-09-17T02:17:38;95125.47;;;10.57;90.50
13407;BME280;6774;48.208;10.766;2022-09-17T02:20:08;95123.25;;;10.53;91.12
13407;BME280;6774;48.208;10.766;2022-09-17T02:22:40;95122.28;;;10.61;90.93
13407;BME280;6774;48.208;10.766;2022-09-17T02:25:14;95122.28;;;10.61;90.55
13407;BME280;6774;48.208;10.766;2022-09-17T02:27:51;95122.59;;;10.45;90.88
13407;BME280;6774;48.208;10.766;2022-09-17T02:30:24;95118.38;;;10.57;91.06
13407;BME280;6774;48.208;10.766;2022-09-17T02:32:54;95120.78;;;10.45;90.25
13407;BME280;6774;48.208;10.766;2022-09-17T02:35:22;95117.16;;;10.60;89.85
13407;BME280;6774;48.208;10.766;2022-09-17T02:37:50;95119.16;;;10.44;89.84
13407;BME280;6774;48.208;10.766;2022-09-17T02:40:20;95110.63;;;10.42;89.51
13407;BME280;6774;48.208;10.766;2022-09-17T02:43:01;95106.56;;;10.46;88.81
13407;BME280;6774;48.208;10.766;2022-09-17T02:45:42;95104.50;;;10.35;89.28
13407;BME280;6774;48.208;10.766;2022-09-17T02:48:41;95089.13;;;10.11;89.85
13407;BME280;6774;48.208;10.766;2022-09-17T02:51:22;95091.06;;;9.95;90.34
13407;BME280;6774;48.208;10.766;2022-09-17T02:53:58;95082.56;;;10.00;91.17
13407;BME280;6774;48.208;10.766;2022-09-17T02:56:35;95080.34;;;10.04;90.88
13407;BME280;6774;48.208;10.766;2022-09-17T02:59:12;95071.78;;;9.88;90.67
13407;BME280;6774;48.208;10.766;2022-09-17T03:01:49;95085.56;;;9.90;90.96
13407;BME280;6774;48.208;10.766;2022-09-17T03:04:20;95079.81;;;9.80;91.24
13407;BME280;6774;48.208;10.766;2022-09-17T03:06:50;95079.56;;;9.75;91.18
13407;BME280;6774;48.208;10.766;2022-09-17T03:09:18;95076.22;;;9.88;91.38
13407;BME280;6774;48.208;10.766;2022-09-17T03:11:46;95076.19;;;9.81;91.32
13407;BME280;6774;48.208;10.766;2022-09-17T03:14:14;95085.13;;;9.87;90.76
13407;BME280;6774;48.208;10.766;2022-09-17T03:16:42;95084.94;;;9.88;91.37
13407;BME280;6774;48.208;10.766;2022-09-17T03:19:10;95079.81;;;9.80;91.06
13407;BME280;6774;48.208;10.766;2022-09-17T03:21:39;95071.28;;;9.78;90.81
13407;BME280;6774;48.208;10.766;2022-09-17T03:24:06;95071.91;;;9.80;90.48
13407;BME280;6774;48.208;10.766;2022-09-17T03:26:36;95074.56;;;9.80;90.19
13407;BME280;6774;48.208;10.766;2022-09-17T03:29:04;95080.72;;;9.66;90.00
13407;BME280;6774;48.208;10.766;2022-09-17T03:31:32;95074.16;;;9.83;90.31
13407;BME280;6774;48.208;10.766;2022-09-17T03:34:00;95077.69;;;9.69;90.23
13407;BME280;6774;48.208;10.766;2022-09-17T03:36:28;95079.56;;;9.75;91.11
13407;BME280;6774;48.208;10.766;2022-09-17T03:38:58;95078.56;;;9.76;90.63
13407;BME280;6774;48.208;10.766;2022-09-17T03:41:26;95080.97;;;9.71;90.94
13407;BME280;6774;48.208;10.766;2022-09-17T03:43:54;95075.56;;;9.79;90.72
13407;BME280;6774;48.208;10.766;2022-09-17T03:46:22;95078.81;;;9.53;91.11
13407;BME280;6774;48.208;10.766;2022-09-17T03:48:50;95067.56;;;9.66;91.87
13407;BME280;6774;48.208;10.766;2022-09-17T03:51:17;95064.19;;;9.51;92.14
13407;BME280;6774;48.208;10.766;2022-09-17T03:53:45;95077.16;;;9.46;92.45
13407;BME280;6774;48.208;10.766;2022-09-17T03:56:15;95076.41;;;9.52;92.20
13407;BME280;6774;48.208;10.766;2022-09-17T03:58:43;95077.16;;;9.46;91.89
13407;BME280;6774;48.208;10.766;2022-09-17T04:01:12;95072.97;;;9.58;91.26
13407;BME280;6774;48.208;10.766;2022-09-17T04:03:40;95077.09;;;9.39;90.76
13407;BME280;6774;48.208;10.766;2022-09-17T04:06:08;95073.63;;;9.38;90.86
13407;BME280;6774;48.208;10.766;2022-09-17T04:08:36;95079.31;;;9.63;90.35
13407;BME280;6774;48.208;10.766;2022-09-17T04:11:04;95083.47;;;9.79;89.72
13407;BME280;6774;48.208;10.766;2022-09-17T04:13:34;95089.38;;;9.60;90.20
13407;BME280;6774;48.208;10.766;2022-09-17T04:16:03;95082.94;;;9.62;90.36
13407;BME280;6774;48.208;10.766;2022-09-17T04:18:31;95082.56;;;9.65;90.78
13407;BME280;6774;48.208;10.766;2022-09-17T04:20:59;95085.28;;;9.51;90.87
13407;BME280;6774;48.208;10.766;2022-09-17T04:23:27;95089.91;;;9.77;89.36
13407;BME280;6774;48.208;10.766;2022-09-17T04:25:54;95089.25;;;9.68;90.17
13407;BME280;6774;48.208;10.766;2022-09-17T04:28:22;95088.50;;;9.74;90.59
13407;BME280;6774;48.208;10.766;2022-09-17T04:30:51;95088.44;;;9.67;90.49
13407;BME280;6774;48.208;10.766;2022-09-17T04:33:19;95084.44;;;9.44;90.41
13407;BME280;6774;48.208;10.766;2022-09-17T04:35:47;95085.03;;;9.46;89.82
13407;BME280;6774;48.208;10.766;2022-09-17T04:38:15;95086.19;;;9.36;90.31
13407;BME280;6774;48.208;10.766;2022-09-17T04:40:46;95096.31;;;9.61;89.97
13407;BME280;6774;48.208;10.766;2022-09-17T04:43:14;95096.34;;;9.67;89.11
13407;BME280;6774;48.208;10.766;2022-09-17T04:45:44;95090.50;;;9.72;89.51
13407;BME280;6774;48.208;10.766;2022-09-17T04:48:14;95085.59;;;9.69;89.27
13407;BME280;6774;48.208;10.766;2022-09-17T04:50:41;95084.78;;;9.62;89.83
13407;BME280;6774;48.208;10.766;2022-09-17T04:53:09;95092.47;;;9.63;91.00
13407;BME280;6774;48.208;10.766;2022-09-17T04:55:38;95085.84;;;9.74;91.41
13407;BME280;6774;48.208;10.766;2022-09-17T04:58:06;95079.84;;;9.52;91.53
13407;BME280;6774;48.208;10.766;2022-09-17T05:00:34;95081.16;;;9.41;92.30
13407;BME280;6774;48.208;10.766;2022-09-17T05:03:02;95091.31;;;9.45;92.78
13407;BME280;6774;48.208;10.766;2022-09-17T05:05:31;95094.19;;;9.50;92.00
13407;BME280;6774;48.208;10.766;2022-09-17T05:07:59;95091.88;;;9.40;92.62
13407;BME280;6774;48.208;10.766;2022-09-17T05:10:27;95099.94;;;9.60;91.64
13407;BME280;6774;48.208;10.766;2022-09-17T05:12:55;95104.84;;;9.63;91.56
13407;BME280;6774;48.208;10.766;2022-09-17T05:15:24;95110.47;;;9.60;91.44
13407;BME280;6774;48.208;10.766;2022-09-17T05:17:53;95115.38;;;9.63;91.57
13407;BME280;6774;48.208;10.766;2022-09-17T05:20:21;95121.59;;;9.83;91.22
13407;BME280;6774;48.208;10.766;2022-09-17T05:22:51;95115.72;;;9.60;90.37
13407;BME280;6774;48.208;10.766;2022-09-17T05:25:20;95133.41;;;9.94;90.53
13407;BME280;6774;48.208;10.766;2022-09-17T05:27:50;95135.09;;;10.02;90.16
13407;BME280;6774;48.208;10.766;2022-09-17T05:30:18;95149.56;;;10.12;89.88
13407;BME280;6774;48.208;10.766;2022-09-17T05:32:46;95151.38;;;10.12;89.41
13407;BME280;6774;48.208;10.766;2022-09-17T05:35:15;95155.78;;;10.05;90.30
13407;BME280;6774;48.208;10.766;2022-09-17T05:37:42;95169.44;;;10.15;90.09
13407;BME280;6774;48.208;10.766;2022-09-17T05:40:12;95177.88;;;10.25;89.77
13407;BME280;6774;48.208;10.766;2022-09-17T05:42:40;95181.13;;;10.27;89.42
13407;BME280;6774;48.208;10.766;2022-09-17T05:45:08;95179.78;;;10.10;89.84
13407;BME280;6774;48.208;10.766;2022-09-17T05:47:36;95192.50;;;9.78;90.40
13407;BME280;6774;48.208;10.766;2022-09-17T05:50:04;95191.00;;;9.48;91.40
13407;BME280;6774;48.208;10.766;2022-09-17T05:52:32;95191.19;;;9.67;91.52
13407;BME280;6774;48.208;10.766;2022-09-17T05:55:00;95196.78;;;9.58;91.33
13407;BME280;6774;48.208;10.766;2022-09-17T05:57:29;95198.28;;;9.46;91.53
13407;BME280;6774;48.208;10.766;2022-09-17T05:59:57;95208.44;;;9.49;91.22
13407;BME280;6774;48.208;10.766;2022-09-17T06:02:25;95214.34;;;9.72;90.47
13407;BME280;6774;48.208;10.766;2022-09-17T06:04:53;95224.31;;;9.55;91.11
13407;BME280;6774;48.208;10.766;2022-09-17T06:07:21;95234.53;;;9.65;90.60
13407;BME280;6774;48.208;10.766;2022-09-17T06:09:48;95239.03;;;9.92;90.55
13407;BME280;6774;48.208;10.766;2022-09-17T06:12:16;95238.84;;;9.94;89.36
13407;BME280;6774;48.208;10.766;2022-09-17T06:14:46;95238.28;;;9.77;90.42
13407;BME280;6774;48.208;10.766;2022-09-17T06:17:13;95249.31;;;9.87;90.23
13407;BME280;6774;48.208;10.766;2022-09-17T06:19:47;95248.97;;;9.90;89.44
13407;BME280;6774;48.208;10.766;2022-09-17T06:22:16;95245.16;;;10.21;88.32
13407;BME280;6774;48.208;10.766;2022-09-17T06:24:44;95256.22;;;10.10;89.24
13407;BME280;6774;48.208;10.766;2022-09-17T06:27:12;95254.75;;;9.79;89.36
13407;BME280;6774;48.208;10.766;2022-09-17T06:29:40;95252.84;;;10.16;88.68
13407;BME280;6774;48.208;10.766;2022-09-17T06:32:10;95257.91;;;9.96;89.38
13407;BME280;6774;48.208;10.766;2022-09-17T06:34:41;95264.25;;;10.02;89.19
13407;BME280;6774;48.208;10.766;2022-09-17T06:37:09;95262.63;;;10.01;89.39
13407;BME280;6774;48.208;10.766;2022-09-17T06:39:37;95263.06;;;10.04;88.44
13407;BME280;6774;48.208;10.766;2022-09-17T06:42:05;95273.81;;;10.03;88.75
13407;BME280;6774;48.208;10.766;2022-09-17T06:44:33;95273.78;;;10.24;88.45
13407;BME280;6774;48.208;10.766;2022-09-17T06:47:01;95275.69;;;9.87;88.29
13407;BME280;6774;48.208;10.766;2022-09-17T06:49:31;95281.09;;;10.01;88.52
13407;BME280;6774;48.208;10.766;2022-09-17T06:51:59;95274.19;;;10.00;88.61
13407;BME280;6774;48.208;10.766;2022-09-17T06:54:27;95281.34;;;9.84;89.44
13407;BME280;6774;48.208;10.766;2022-09-17T06:56:55;95274.63;;;10.03;88.76
13407;BME280;6774;48.208;10.766;2022-09-17T06:59:23;95277.84;;;9.98;88.63
13407;BME280;6774;48.208;10.766;2022-09-17T07:01:50;95276.63;;;10.22;88.13
13407;BME280;6774;48.208;10.766;2022-09-17T07:04:19;95274.06;;;10.29;88.38
13407;BME280;6774;48.208;10.766;2022-09-17T07:06:48;95264.44;;;10.49;86.90
13407;BME280;6774;48.208;10.766;2022-09-17T07:09:16;95279.00;;;10.39;86.88
13407;BME280;6774;48.208;10.766;2022-09-17T07:11:44;95279.25;;;10.22;87.09
13407;BME280;6774;48.208;10.766;2022-09-17T07:14:12;95277.94;;;10.12;87.79
13407;BME280;6774;48.208;10.766;2022-09-17T07:16:39;95284.75;;;10.49;87.12
13407;BME280;6774;48.208;10.766;2022-09-17T07:19:07;95290.47;;;10.52;86.98
13407;BME280;6774;48.208;10.766;2022-09-17T07:21:36;95282.78;;;10.58;86.40
13407;BME280;6774;48.208;10.766;2022-09-17T07:24:06;95281.63;;;10.67;86.50
13407;BME280;6774;48.208;10.766;2022-09-17T07:26:34;95283.41;;;10.94;85.26
13407;BME280;6774;48.208;10.766;2022-09-17T07:29:01;95286.91;;;10.67;84.68
13407;BME280;6774;48.208;10.766;2022-09-17T07:31:29;95285.66;;;10.63;84.89
13407;BME280;6774;48.208;10.766;2022-09-17T07:33:57;95283.75;;;10.85;83.21
13407;BME280;6774;48.208;10.766;2022-09-17T07:36:25;95290.31;;;10.95;84.24
13407;BME280;6774;48.208;10.766;2022-09-17T07:38:52;95297.22;;;10.96;84.34
13407;BME280;6774;48.208;10.766;2022-09-17T07:41:22;95281.06;;;11.13;83.68
13407;BME280;6774;48.208;10.766;2022-09-17T07:43:51;95287.03;;;11.28;84.03
13407;BME280;6774;48.208;10.766;2022-09-17T07:46:20;95290.16;;;11.03;82.60
13407;BME280;6774;48.208;10.766;2022-09-17T07:48:49;95280.75;;;10.60;83.59
13407;BME280;6774;48.208;10.766;2022-09-17T07:51:18;95287.75;;;10.74;84.82
13407;BME280;6774;48.208;10.766;2022-09-17T07:53:49;95294.72;;;10.81;85.92
13407;BME280;6774;48.208;10.766;2022-09-17T07:56:17;95284.72;;;10.42;87.28
13407;BME280;6774;48.208;10.766;2022-09-17T07:58:47;95279.91;;;10.24;88.55
13407;BME280;6774;48.208;10.766;2022-09-17T08:01:16;95273.63;;;10.25;86.79
13407;BME280;6774;48.208;10.766;2022-09-17T08:03:47;95263.97;;;10.39;86.12
13407;BME280;6774;48.208;10.766;2022-09-17T08:06:17;95265.84;;;10.45;86.03
13407;BME280;6774;48.208;10.766;2022-09-17T08:08:45;95266.06;;;10.44;86.32
13407;BME280;6774;48.208;10.766;2022-09-17T08:11:16;95268.28;;;10.75;87.10
13407;BME280;6774;48.208;10.766;2022-09-17T08:14:09;95259.75;;;11.21;87.17
13407;BME280;6774;48.208;10.766;2022-09-17T08:16:37;95266.84;;;11.14;85.15
13407;BME280;6774;48.208;10.766;2022-09-17T08:19:05;95258.97;;;11.33;84.50
13407;BME280;6774;48.208;10.766;2022-09-17T08:21:34;95249.41;;;11.19;85.15
13407;BME280;6774;48.208;10.766;2022-09-17T08:24:02;95251.16;;;10.99;83.68
13407;BME280;6774;48.208;10.766;2022-09-17T08:26:30;95238.06;;;10.84;83.57
13407;BME280;6774;48.208;10.766;2022-09-17T08:28:58;95246.03;;;10.91;85.46
13407;BME280;6774;48.208;10.766;2022-09-17T08:31:28;95245.34;;;11.17;86.18
13407;BME280;6774;48.208;10.766;2022-09-17T08:33:56;95247.38;;;11.21;85.31
13407;BME280;6774;48.208;10.766;2022-09-17T08:36:25;95250.53;;;11.03;86.36
13407;BME280;6774;48.208;10.766;2022-09-17T08:38:54;95247.75;;;11.11;84.00
13407;BME280;6774;48.208;10.766;2022-09-17T08:41:28;95256.63;;;10.97;85.47
13407;BME280;6774;48.208;10.766;2022-09-17T08:44:10;95244.59;;;11.43;83.73
13407;BME280;6774;48.208;10.766;2022-09-17T08:46:45;95238.13;;;11.58;81.33
13407;BME280;6774;48.208;10.766;2022-09-17T08:49:19;95245.59;;;11.35;83.40
13407;BME280;6774;48.208;10.766;2022-09-17T08:52:03;95241.72;;;11.31;83.53
13407;BME280;6774;48.208;10.766;2022-09-17T08:54:38;95245.22;;;11.51;84.04
13407;BME280;6774;48.208;10.766;2022-09-17T08:57:15;95260.41;;;11.29;83.12
13407;BME280;6774;48.208;10.766;2022-09-17T08:59:48;95264.09;;;11.42;83.16
13407;BME280;6774;48.208;10.766;2022-09-17T09:02:27;95256.22;;;11.00;83.54
13407;BME280;6774;48.208;10.766;2022-09-17T09:05:08;95267.47;;;11.16;84.95
13407;BME280;6774;48.208;10.766;2022-09-17T09:07:41;95265.75;;;11.49;83.03
13407;BME280;6774;48.208;10.766;2022-09-17T09:10:14;95267.69;;;11.21;81.01
13407;BME280;6774;48.208;10.766;2022-09-17T09:12:44;95279.66;;;11.23;81.47
13407;BME280;6774;48.208;10.766;2022-09-17T09:15:26;95279.53;;;11.38;82.35
13407;BME280;6774;48.208;10.766;2022-09-17T09:18:02;95272.28;;;11.53;81.69
13407;BME280;6774;48.208;10.766;2022-09-17T09:20:42;95290.09;;;11.38;80.73
13407;BME280;6774;48.208;10.766;2022-09-17T09:23:17;95274.84;;;11.27;80.84
13407;BME280;6774;48.208;10.766;2022-09-17T09:25:54;95294.88;;;11.15;80.90
13407;BME280;6774;48.208;10.766;2022-09-17T09:28:43;95297.91;;;11.11;82.88
13407;BME280;6774;48.208;10.766;2022-09-17T09:31:30;95299.69;;;11.04;82.59
13407;BME280;6774;48.208;10.766;2022-09-17T09:34:03;95292.06;;;11.23;83.54
13407;BME280;6774;48.208;10.766;2022-09-17T09:36:32;95297.56;;;10.80;82.11
13407;BME280;6774;48.208;10.766;2022-09-17T09:39:02;95298.59;;;11.27;81.64
13407;BME280;6774;48.208;10.766;2022-09-17T09:41:38;95297.31;;;11.09;82.29
13407;BME280;6774;48.208;10.766;2022-09-17T09:44:10;95302.91;;;10.93;81.67
13407;BME280;6774;48.208;10.766;2022-09-17T09:47:02;95301.41;;;11.19;81.39
13407;BME280;6774;48.208;10.766;2022-09-17T09:49:47;95296.75;;;11.21;79.38
13407;BME280;6774;48.208;10.766;2022-09-17T09:52:26;95299.59;;;11.19;80.69
13407;BME280;6774;48.208;10.766;2022-09-17T09:55:11;95310.03;;;10.99;82.71
13407;BME280;6774;48.208;10.766;2022-09-17T09:57:44;95310.72;;;11.15;82.24
13407;BME280;6774;48.208;10.766;2022-09-17T10:00:25;95309.50;;;10.76;82.59
13407;BME280;6774;48.208;10.766;2022-09-17T10:02:58;95311.06;;;10.98;83.15
13407;BME280;6774;48.208;10.766;2022-09-17T10:05:29;95323.47;;;10.70;84.43
13407;BME280;6774;48.208;10.766;2022-09-17T10:07:57;95342.75;;;10.42;86.00
13407;BME280;6774;48.208;10.766;2022-09-17T10:10:25;95341.88;;;10.35;87.13
13407;BME280;6774;48.208;10.766;2022-09-17T10:13:06;95336.69;;;10.06;88.74
13407;BME280;6774;48.208;10.766;2022-09-17T10:15:34;95340.84;;;9.93;90.62
13407;BME280;6774;48.208;10.766;2022-09-17T10:18:10;95340.91;;;10.00;90.26
13407;BME280;6774;48.208;10.766;2022-09-17T10:20:54;95336.44;;;9.79;89.87
13407;BME280;6774;48.208;10.766;2022-09-17T10:23:24;95342.22;;;9.89;89.61
13407;BME280;6774;48.208;10.766;2022-09-17T10:25:53;95340.13;;;9.85;89.15
13407;BME280;6774;48.208;10.766;2022-09-17T10:28:43;95341.44;;;9.95;89.28
13407;BME280;6774;48.208;10.766;2022-09-17T10:31:12;95341.44;;;9.95;88.32
13407;BME280;6774;48.208;10.766;2022-09-17T10:33:51;95338.22;;;10.36;88.40
13407;BME280;6774;48.208;10.766;2022-09-17T10:36:39;95332.28;;;10.56;88.58
13407;BME280;6774;48.208;10.766;2022-09-17T10:39:31;95323.28;;;10.43;88.89
13407;BME280;6774;48.208;10.766;2022-09-17T10:42:01;95326.13;;;10.48;88.18
13407;BME280;6774;48.208;10.766;2022-09-17T10:44:31;95331.88;;;10.52;88.59
13407;BME280;6774;48.208;10.766;2022-09-17T10:47:12;95331.13;;;10.65;88.08
13407;BME280;6774;48.208;10.766;2022-09-17T10:49:43;95329.97;;;10.74;87.03
13407;BME280;6774;48.208;10.766;2022-09-17T10:52:22;95317.34;;;10.69;86.03
13407;BME280;6774;48.208;10.766;2022-09-17T10:55:08;95323.34;;;10.85;87.03
13407;BME280;6774;48.208;10.766;2022-09-17T10:57:51;95316.91;;;10.94;86.87
13407;BME280;6774;48.208;10.766;2022-09-17T11:00:25;95326.50;;;11.01;86.72
13407;BME280;6774;48.208;10.766;2022-09-17T11:03:20;95326.50;;;11.01;86.81
13407;BME280;6774;48.208;10.766;2022-09-17T11:08:57;95310.44;;;11.37;84.98
13407;BME280;6774;48.208;10.766;2022-09-17T11:11:34;95311.47;;;11.43;82.62
13407;BME280;6774;48.208;10.766;2022-09-17T11:14:17;95314.28;;;11.96;82.96
13407;BME280;6774;48.208;10.766;2022-09-17T11:16:53;95315.44;;;11.74;83.29
13407;BME280;6774;48.208;10.766;2022-09-17T11:19:30;95310.22;;;11.93;82.13
13407;BME280;6774;48.208;10.766;2022-09-17T11:22:10;95305.13;;;12.05;81.91
13407;BME280;6774;48.208;10.766;2022-09-17T11:25:00;95306.78;;;12.00;83.10
13407;BME280;6774;48.208;10.766;2022-09-17T11:27:40;95306.84;;;11.58;82.89
13407;BME280;6774;48.208;10.766;2022-09-17T11:30:15;95308.28;;;11.67;81.36
13407;BME280;6774;48.208;10.766;2022-09-17T11:33:02;95302.78;;;11.56;83.55
13407;BME280;6774;48.208;10.766;2022-09-17T11:35:36;95311.81;;;11.88;84.10
13407;BME280;6774;48.208;10.766;2022-09-17T11:38:11;95300.75;;;11.58;81.79
13407;BME280;6774;48.208;10.766;2022-09-17T11:40:47;95311.06;;;12.07;83.19
13407;BME280;6774;48.208;10.766;2022-09-17T11:43:22;95302.91;;;12.15;82.62
13407;BME280;6774;48.208;10.766;2022-09-17T11:45:58;95299.28;;;12.30;80.70
13407;BME280;6774;48.208;10.766;2022-09-17T11:48:31;95297.66;;;12.55;80.05
13407;BME280;6774;48.208;10.766;2022-09-17T11:51:06;95286.22;;;12.81;80.63
13407;BME280;6774;48.208;10.766;2022-09-17T11:53:42;95282.34;;;12.84;80.71
13407;BME280;6774;48.208;10.766;2022-09-17T11:56:17;95278.06;;;12.82;79.69
13407;BME280;6774;48.208;10.766;2022-09-17T11:58:50;95275.19;;;12.77;80.69
13407;BME280;6774;48.208;10.766;2022-09-17T12:01:25;95278.88;;;12.90;80.00
13407;BME280;6774;48.208;10.766;2022-09-17T12:03:58;95280.19;;;13.32;79.71
13407;BME280;6774;48.208;10.766;2022-09-17T12:06:34;95280.16;;;13.38;75.14
13407;BME280;6774;48.208;10.766;2022-09-17T12:09:09;95266.69;;;12.62;75.55
13407;BME280;6774;48.208;10.766;2022-09-17T12:11:44;95273.03;;;12.35;77.28
13407;BME280;6774;48.208;10.766;2022-09-17T12:14:16;95271.56;;;12.65;76.86
13407;BME280;6774;48.208;10.766;2022-09-17T12:16:51;95263.81;;;12.70;77.57
13407;BME280;6774;48.208;10.766;2022-09-17T12:19:23;95270.19;;;12.36;78.01
13407;BME280;6774;48.208;10.766;2022-09-17T12:21:55;95267.09;;;11.93;77.62
13407;BME280;6774;48.208;10.766;2022-09-17T12:24:26;95277.66;;;11.80;77.11
13407;BME280;6774;48.208;10.766;2022-09-17T12:27:13;95262.22;;;12.30;77.69
13407;BME280;6774;48.208;10.766;2022-09-17T12:30:08;95277.88;;;12.24;75.84
13407;BME280;6774;48.208;10.766;2022-09-17T12:32:56;95285.22;;;12.22;75.24
13407;BME280;6774;48.208;10.766;2022-09-17T12:35:35;95269.94;;;12.24;75.53
13407;BME280;6774;48.208;10.766;2022-09-17T12:38:46;95261.75;;;11.73;73.34
13407;BME280;6774;48.208;10.766;2022-09-17T12:41:19;95276.53;;;11.54;74.94
13407;BME280;6774;48.208;10.766;2022-09-17T12:43:59;95271.09;;;11.76;75.48
13407;BME280;6774;48.208;10.766;2022-09-17T12:46:45;95265.03;;;11.88;75.62
13407;BME280;6774;48.208;10.766;2022-09-17T12:49:44;95264.56;;;11.58;76.17
13407;BME280;6774;48.208;10.766;2022-09-17T12:52:20;95274.03;;;12.01;77.59
13407;BME280;6774;48.208;10.766;2022-09-17T12:55:20;95264.25;;;12.01;78.02
13407;BME280;6774;48.208;10.766;2022-09-17T12:57:57;95259.75;;;11.82;77.31
13407;BME280;6774;48.208;10.766;2022-09-17T13:00:35;95254.28;;;12.23;77.29
13407;BME280;6774;48.208;10.766;2022-09-17T13:03:11;95251.44;;;12.24;75.33
13407;BME280;6774;48.208;10.766;2022-09-17T13:08:59;95229.84;;;12.41;76.67
13407;BME280;6774;48.208;10.766;2022-09-17T13:11:49;95238.34;;;12.69;74.13
13407;BME280;6774;48.208;10.766;2022-09-17T13:14:28;95238.56;;;12.61;75.04
13407;BME280;6774;48.208;10.766;2022-09-17T13:17:05;95238.38;;;12.63;74.97
13407;BME280;6774;48.208;10.766;2022-09-17T13:19:38;95241.84;;;12.43;73.66
13407;BME280;6774;48.208;10.766;2022-09-17T13:22:15;95232.50;;;12.54;76.74
13407;BME280;6774;48.208;10.766;2022-09-17T13:24:45;95240.22;;;12.62;75.41
13407;BME280;6774;48.208;10.766;2022-09-17T13:27:20;95233.25;;;12.74;75.83
13407;BME280;6774;48.208;10.766;2022-09-17T13:29:57;95215.38;;;12.50;75.33
13407;BME280;6774;48.208;10.766;2022-09-17T13:32:49;95223.31;;;12.57;74.06
13407;BME280;6774;48.208;10.766;2022-09-17T13:35:45;95223.25;;;12.83;73.83
13407;BME280;6774;48.208;10.766;2022-09-17T13:38:13;95218.00;;;12.70;74.10
13407;BME280;6774;48.208;10.766;2022-09-17T13:40:47;95223.50;;;12.68;74.01
13407;BME280;6774;48.208;10.766;2022-09-17T13:43:17;95223.47;;;12.81;73.69